QTR633 OPIS-OTHH
Flight info
| Callsign | QTR633 |
|---|---|
| Flight time | N/A |
| Altitude | 34000 |
| Route | DAMTO Z304 ZB J133 PARLO G325 PG T385 TAPDO A454 VUSET T500 MCT T508 MIXAM P899 TOVOX |
| Aircraft | B77W/H-SDE1E2E3FGHIJ2J3J4J5M1RWXY/LB1D1 |
Departure
| Time | N/A |
|---|---|
| Airport | Islamabad International Airport (OPIS) |
Arrival
| Time | 2026-05-03 20:16 |
|---|---|
| Airport | Hamad International Airport (OTHH) |
| Time | Latitude | Longitude | Altitude | Speed | Heading |
|---|---|---|---|---|---|
| 2026-05-03 20:15 | 25.21310 | 51.62407 | 894 ft | 145 kts | 339° |
| 2026-05-03 20:15 | 25.22238 | 51.61997 | 737 ft | 148 kts | 339° |
| 2026-05-03 20:15 | 25.23198 | 51.61573 | 553 ft | 149 kts | 339° |
| 2026-05-03 20:15 | 25.24158 | 51.61144 | 358 ft | 149 kts | 338° |
| 2026-05-03 20:16 | 25.25112 | 51.60731 | 160 ft | 147 kts | 339° |
| 2026-05-03 20:16 | 25.26058 | 51.60316 | 40 ft | 139 kts | 339° |
| 2026-05-03 20:16 | 25.26833 | 51.59972 | 30 ft | 98 kts | 338° |
| 2026-05-03 20:16 | 25.27194 | 51.59828 | 31 ft | 34 kts | 352° |
| 2026-05-03 20:17 | 25.27347 | 51.59828 | 32 ft | 14 kts | 6° |
| 2026-05-03 20:17 | 25.27400 | 51.59838 | 32 ft | 7 kts | 18° |
| 2026-05-03 20:17 | 25.27436 | 51.59869 | 33 ft | 7 kts | 61° |
| 2026-05-03 20:17 | 25.27421 | 51.59913 | 34 ft | 7 kts | 144° |
| 2026-05-03 20:18 | 25.27376 | 51.59936 | 34 ft | 7 kts | 158° |
| 2026-05-03 20:18 | 25.27327 | 51.59958 | 34 ft | 8 kts | 158° |
| 2026-05-03 20:18 | 25.27274 | 51.59981 | 34 ft | 9 kts | 159° |
| 2026-05-03 20:18 | 25.27202 | 51.60012 | 34 ft | 13 kts | 158° |
| 2026-05-03 20:19 | 25.27109 | 51.60053 | 33 ft | 15 kts | 159° |
| 2026-05-03 20:19 | 25.27042 | 51.60083 | 33 ft | 7 kts | 158° |
| 2026-05-03 20:19 | 25.26992 | 51.60106 | 33 ft | 8 kts | 157° |
| 2026-05-03 20:19 | 25.26950 | 51.60143 | 33 ft | 8 kts | 114° |
| 2026-05-03 20:20 | 25.26949 | 51.60205 | 34 ft | 8 kts | 102° |
| 2026-05-03 20:20 | 25.26918 | 51.60242 | 34 ft | 8 kts | 151° |
| 2026-05-03 20:20 | 25.26861 | 51.60269 | 34 ft | 9 kts | 158° |
| 2026-05-03 20:20 | 25.26801 | 51.60295 | 34 ft | 7 kts | 158° |
| 2026-05-03 20:21 | 25.26776 | 51.60334 | 34 ft | 7 kts | 92° |
| 2026-05-03 20:21 | 25.26788 | 51.60384 | 35 ft | 7 kts | 70° |
| 2026-05-03 20:21 | 25.26798 | 51.60412 | 35 ft | 2 kts | 69° |
| 2026-05-03 20:21 | 25.26799 | 51.60415 | 35 ft | 0 kts | 69° |